Time;durP1;ratioP1;P1;durP2;ratioP2;P2;SDS_P1;SDS_P2;PMS_P1;PMS_P2;Temp;Humidity;BMP_temperature;BMP_pressure;BME280_temperature;BME280_humidity;BME280_pressure;Samples;Min_cycle;Max_cycle;Signal;HPM_P1;HPM_P2
2023/09/15 00:01:40;;;;;;;3.93;2.70;;;14.10;99.90;;;;;;4977474;28;20492;-78
2023/09/15 00:04:07;;;;;;;5.60;2.87;;;14.10;99.90;;;;;;4977364;28;20487;-79
2023/09/15 00:06:41;;;;;;;8.87;3.23;;;14.10;99.90;;;;;;4977292;28;20458;-77
2023/09/15 00:09:15;;;;;;;6.03;3.10;;;14.00;99.90;;;;;;4977165;28;20479;-79
2023/09/15 00:11:43;;;;;;;5.37;2.77;;;14.00;99.90;;;;;;4976693;28;20961;-78
2023/09/15 00:14:11;;;;;;;4.90;2.70;;;14.00;99.90;;;;;;4976348;28;21010;-79
2023/09/15 00:16:40;;;;;;;5.37;2.67;;;14.00;99.90;;;;;;4975132;28;20465;-78
2023/09/15 00:19:13;;;;;;;4.83;3.03;;;13.90;99.90;;;;;;4973726;28;20488;-78
2023/09/15 00:21:39;;;;;;;4.73;3.13;;;13.90;99.90;;;;;;4974468;28;21116;-78
2023/09/15 00:24:07;;;;;;;5.10;2.80;;;13.90;99.90;;;;;;4974660;28;20479;-77
2023/09/15 00:26:34;;;;;;;5.50;3.40;;;13.90;99.90;;;;;;4974821;28;20564;-77
2023/09/15 00:29:04;;;;;;;5.40;2.70;;;13.90;99.90;;;;;;4974156;28;20656;-78
2023/09/15 00:31:31;;;;;;;4.47;2.87;;;13.80;99.90;;;;;;4975093;28;20447;-77
2023/09/15 00:33:58;;;;;;;4.07;2.60;;;13.90;99.90;;;;;;4975044;28;20460;-78
2023/09/15 00:36:25;;;;;;;5.63;2.80;;;13.80;99.90;;;;;;4974680;28;20538;-78
2023/09/15 00:38:52;;;;;;;5.17;3.50;;;13.70;99.90;;;;;;4974770;28;20471;-79
2023/09/15 00:41:19;;;;;;;6.17;3.53;;;13.70;99.90;;;;;;4974865;28;20953;-79
2023/09/15 00:43:45;;;;;;;3.70;2.80;;;13.70;99.90;;;;;;4975028;28;20547;-78
2023/09/15 00:46:14;;;;;;;4.40;2.17;;;13.70;99.90;;;;;;4975357;28;20963;-79
2023/09/15 00:48:41;;;;;;;4.83;2.80;;;13.70;99.90;;;;;;4975171;28;20480;-78
2023/09/15 00:51:10;;;;;;;6.60;3.10;;;13.70;99.90;;;;;;4974977;28;20466;-78
2023/09/15 00:53:40;;;;;;;4.90;3.23;;;13.70;99.90;;;;;;4975307;28;20469;-79
2023/09/15 00:56:08;;;;;;;7.07;3.73;;;13.70;99.90;;;;;;4975231;28;20451;-77
2023/09/15 00:58:39;;;;;;;6.50;3.40;;;13.70;99.90;;;;;;4974992;28;20472;-78
2023/09/15 01:01:07;;;;;;;3.93;2.87;;;13.70;99.90;;;;;;4975107;28;20993;-79
2023/09/15 01:03:40;;;;;;;6.57;2.80;;;13.70;99.90;;;;;;4974952;28;20494;-78
2023/09/15 01:06:07;;;;;;;6.50;2.90;;;13.60;99.90;;;;;;4974639;28;20467;-79
2023/09/15 01:08:35;;;;;;;4.40;3.03;;;13.60;99.90;;;;;;4974474;28;20561;-78
2023/09/15 01:11:04;;;;;;;5.53;3.03;;;13.60;99.90;;;;;;4939299;28;1076488;-78
2023/09/15 01:13:31;;;;;;;6.77;3.40;;;13.50;99.90;;;;;;4976239;28;20211;-79
2023/09/15 01:16:05;;;;;;;5.93;3.30;;;13.50;99.90;;;;;;4975485;28;20850;-78
2023/09/15 01:18:41;;;;;;;5.47;3.20;;;13.50;99.90;;;;;;4976107;28;20486;-78
2023/09/15 01:21:36;;;;;;;4.00;3.23;;;13.50;99.90;;;;;;4975787;28;20466;-79
2023/09/15 01:24:32;;;;;;;4.97;3.40;;;13.40;99.90;;;;;;4974469;28;20471;-78
2023/09/15 01:27:19;;;;;;;4.43;3.17;;;13.50;99.90;;;;;;4976462;28;20862;-78
2023/09/15 01:29:54;;;;;;;7.60;3.30;;;13.40;99.90;;;;;;4978109;28;20531;-77
2023/09/15 01:32:22;;;;;;;7.20;4.67;;;13.40;99.90;;;;;;4977633;28;20458;-78
2023/09/15 01:34:50;;;;;;;4.83;3.10;;;13.40;99.90;;;;;;4977878;28;20478;-78
2023/09/15 01:37:17;;;;;;;6.63;3.10;;;13.40;99.90;;;;;;4977458;28;20879;-79
2023/09/15 01:39:44;;;;;;;8.33;3.17;;;13.40;99.90;;;;;;4977392;28;20450;-78
2023/09/15 01:42:11;;;;;;;6.60;3.47;;;13.40;99.90;;;;;;4977171;28;20611;-77
2023/09/15 01:44:38;;;;;;;4.50;3.20;;;13.30;99.90;;;;;;4977213;28;20521;-79
2023/09/15 01:47:08;;;;;;;6.40;3.43;;;13.30;99.90;;;;;;4977701;28;20465;-79
2023/09/15 01:49:38;;;;;;;4.37;3.10;;;13.30;99.90;;;;;;4980325;28;20985;-79
2023/09/15 01:52:05;;;;;;;5.30;3.83;;;13.30;99.90;;;;;;4981789;28;20455;-79
2023/09/15 01:54:32;;;;;;;4.13;3.40;;;13.30;99.90;;;;;;4981199;28;20540;-79
2023/09/15 01:57:02;;;;;;;5.00;3.30;;;13.30;99.90;;;;;;4981265;28;20543;-79
2023/09/15 01:59:29;;;;;;;6.23;4.07;;;13.20;99.90;;;;;;4980820;28;20478;-78
2023/09/15 02:01:56;;;;;;;8.27;3.50;;;13.30;99.90;;;;;;4980844;28;20490;-79
2023/09/15 02:04:24;;;;;;;6.60;3.43;;;13.30;99.90;;;;;;4981263;28;20487;-78
2023/09/15 02:06:51;;;;;;;6.57;3.33;;;13.30;99.90;;;;;;4980868;28;20883;-79
2023/09/15 02:09:19;;;;;;;6.20;3.20;;;13.30;99.90;;;;;;4981284;28;20479;-79
2023/09/15 02:11:46;;;;;;;5.53;3.60;;;13.20;99.90;;;;;;4981736;28;20495;-79
2023/09/15 02:14:13;;;;;;;7.47;3.80;;;13.20;99.90;;;;;;4981637;28;20456;-79
2023/09/15 02:16:40;;;;;;;4.90;3.37;;;13.10;99.90;;;;;;4982306;28;20458;-77
2023/09/15 02:19:07;;;;;;;5.03;3.40;;;13.10;99.90;;;;;;4986374;28;20537;-78
2023/09/15 02:21:35;;;;;;;4.63;3.40;;;13.10;99.90;;;;;;4983766;28;20463;-79
2023/09/15 02:24:02;;;;;;;5.20;3.27;;;13.10;99.90;;;;;;4980854;28;20503;-78
2023/09/15 02:26:31;;;;;;;4.47;3.37;;;13.10;99.90;;;;;;4980354;28;20882;-79
2023/09/15 02:28:58;;;;;;;5.07;3.87;;;13.20;99.90;;;;;;4979032;28;20506;-78
2023/09/15 02:31:25;;;;;;;5.20;3.33;;;13.10;99.90;;;;;;4978731;28;20449;-80
2023/09/15 02:33:52;;;;;;;6.80;3.50;;;13.10;99.90;;;;;;4978513;28;20454;-78
2023/09/15 02:36:19;;;;;;;4.67;4.07;;;13.00;99.90;;;;;;4978636;28;20967;-80
2023/09/15 02:38:47;;;;;;;6.43;3.80;;;13.00;99.90;;;;;;4978772;28;20477;-80
2023/09/15 02:41:13;;;;;;;7.03;3.60;;;12.90;99.90;;;;;;4979586;28;20836;-79
2023/09/15 02:43:40;;;;;;;4.23;3.60;;;13.00;99.90;;;;;;4978966;28;20499;-79
2023/09/15 02:46:07;;;;;;;4.63;3.27;;;13.00;99.90;;;;;;4979314;28;20465;-79
2023/09/15 02:48:34;;;;;;;4.97;3.23;;;13.00;99.90;;;;;;4978588;28;20557;-79
2023/09/15 02:51:01;;;;;;;5.67;3.07;;;12.90;99.90;;;;;;4980204;28;20997;-79
2023/09/15 02:53:28;;;;;;;6.83;4.30;;;12.90;99.90;;;;;;4980131;28;20531;-79
2023/09/15 02:56:00;;;;;;;4.60;3.20;;;13.00;99.90;;;;;;4980073;28;20983;-79
2023/09/15 02:58:27;;;;;;;4.80;3.10;;;13.00;99.90;;;;;;4978452;28;20478;-77
2023/09/15 03:00:54;;;;;;;7.00;3.50;;;13.00;99.90;;;;;;4978806;28;20470;-79
2023/09/15 03:03:24;;;;;;;5.63;3.20;;;12.90;99.90;;;;;;4978500;28;20503;-78
2023/09/15 03:05:51;;;;;;;3.50;3.20;;;12.90;99.90;;;;;;4978986;28;20641;-79
2023/09/15 03:08:18;;;;;;;6.00;3.30;;;12.90;99.90;;;;;;4978167;28;20509;-78
2023/09/15 03:10:44;;;;;;;4.97;3.13;;;12.90;99.90;;;;;;4978766;28;20469;-79
2023/09/15 03:13:13;;;;;;;5.10;3.30;;;12.90;99.90;;;;;;4979470;28;20450;-77
2023/09/15 03:15:40;;;;;;;5.33;3.47;;;12.90;99.90;;;;;;4979014;28;20810;-78
2023/09/15 03:18:07;;;;;;;5.77;3.90;;;12.80;99.90;;;;;;4978972;28;20468;-78
2023/09/15 03:20:36;;;;;;;4.67;3.40;;;12.70;99.90;;;;;;4979707;28;20471;-77
2023/09/15 03:23:03;;;;;;;3.67;3.10;;;12.70;99.90;;;;;;4978560;28;20590;-79
2023/09/15 03:25:30;;;;;;;5.90;3.40;;;12.70;99.90;;;;;;4977971;28;20494;-79
2023/09/15 03:27:57;;;;;;;4.17;2.80;;;12.70;99.90;;;;;;4977577;28;20484;-78
2023/09/15 03:30:25;;;;;;;6.33;3.50;;;12.70;99.90;;;;;;4977557;28;20561;-79
2023/09/15 03:32:52;;;;;;;6.27;3.77;;;12.70;99.90;;;;;;4977498;28;20540;-77
2023/09/15 03:35:20;;;;;;;5.27;3.13;;;12.70;99.90;;;;;;4978066;28;20522;-79
2023/09/15 03:37:46;;;;;;;5.27;3.77;;;12.60;99.90;;;;;;4977614;28;20531;-78
2023/09/15 03:40:13;;;;;;;6.70;3.20;;;12.60;99.90;;;;;;4977756;28;20463;-78
2023/09/15 03:42:40;;;;;;;6.00;3.40;;;12.60;99.90;;;;;;4977456;28;20502;-78
2023/09/15 03:45:08;;;;;;;3.90;3.33;;;12.60;99.90;;;;;;4977473;28;20466;-79
2023/09/15 03:47:36;;;;;;;7.00;4.20;;;12.70;99.90;;;;;;4977475;28;20475;-79
2023/09/15 03:50:07;;;;;;;4.33;3.37;;;12.60;99.90;;;;;;4977362;28;20464;-78
2023/09/15 03:52:34;;;;;;;4.23;2.73;;;12.60;99.90;;;;;;4970324;28;20461;-79
2023/09/15 03:55:02;;;;;;;4.20;3.17;;;12.60;99.90;;;;;;4977517;28;20466;-78
2023/09/15 03:57:30;;;;;;;4.53;2.90;;;12.60;99.90;;;;;;4977181;28;20460;-78
2023/09/15 03:59:57;;;;;;;4.73;3.03;;;12.60;99.90;;;;;;4977245;28;20514;-79
2023/09/15 04:02:24;;;;;;;5.20;3.47;;;12.60;99.90;;;;;;4977541;28;20464;-79
2023/09/15 04:04:52;;;;;;;5.93;3.27;;;12.60;99.90;;;;;;4977237;28;20458;-78
2023/09/15 04:07:19;;;;;;;5.27;3.20;;;12.50;99.90;;;;;;4977470;28;20458;-78
2023/09/15 04:09:46;;;;;;;5.40;3.30;;;12.50;99.90;;;;;;4977676;28;20512;-79
2023/09/15 04:12:13;;;;;;;8.17;3.60;;;12.50;99.90;;;;;;4976545;28;21019;-78
2023/09/15 04:14:40;;;;;;;4.83;3.50;;;12.50;99.90;;;;;;4977776;28;20455;-80
2023/09/15 04:17:07;;;;;;;4.33;3.60;;;12.50;99.90;;;;;;4977142;28;20457;-80
2023/09/15 04:19:34;;;;;;;5.70;3.67;;;12.50;99.90;;;;;;4977924;28;20950;-79
2023/09/15 04:22:02;;;;;;;4.63;4.00;;;12.60;99.90;;;;;;4978425;28;20506;-80
2023/09/15 04:24:28;;;;;;;5.60;4.43;;;12.50;99.90;;;;;;4976947;28;20562;-81
2023/09/15 04:26:55;;;;;;;4.67;3.53;;;12.40;99.90;;;;;;4982243;28;20474;-79
2023/09/15 04:29:22;;;;;;;7.10;3.60;;;12.50;99.90;;;;;;4977420;28;20485;-79
2023/09/15 04:31:49;;;;;;;7.20;3.73;;;12.40;99.90;;;;;;4977453;28;20496;-79
2023/09/15 04:34:16;;;;;;;4.70;3.17;;;12.40;99.90;;;;;;4977991;28;20460;-79
2023/09/15 04:36:43;;;;;;;5.33;3.70;;;12.40;99.90;;;;;;4977667;28;20576;-79
2023/09/15 04:39:13;;;;;;;5.57;3.80;;;12.40;99.90;;;;;;4976803;28;20504;-78
2023/09/15 04:41:40;;;;;;;5.20;3.53;;;12.40;99.90;;;;;;4977628;28;20462;-79
2023/09/15 04:44:07;;;;;;;5.13;3.43;;;12.40;99.90;;;;;;4977616;28;20496;-79
2023/09/15 04:46:34;;;;;;;4.23;3.57;;;12.40;99.90;;;;;;4978052;28;20465;-79
2023/09/15 04:49:00;;;;;;;3.83;3.30;;;12.40;99.90;;;;;;4976845;28;20489;-78
2023/09/15 04:51:28;;;;;;;5.83;3.50;;;12.30;99.90;;;;;;4971781;28;20482;-77
2023/09/15 04:53:55;;;;;;;4.63;3.57;;;12.30;99.90;;;;;;4975925;28;20458;-78
2023/09/15 04:56:23;;;;;;;6.23;3.40;;;12.30;99.90;;;;;;4977065;28;20468;-78
2023/09/15 04:58:51;;;;;;;6.27;3.73;;;12.30;99.90;;;;;;4975896;28;20476;-78
2023/09/15 05:01:19;;;;;;;9.23;4.53;;;12.30;99.90;;;;;;4976623;28;20461;-78
2023/09/15 05:03:46;;;;;;;4.70;3.60;;;12.30;99.90;;;;;;4976013;28;20522;-77
2023/09/15 05:06:13;;;;;;;5.67;3.70;;;12.30;99.90;;;;;;4976271;28;20549;-78
2023/09/15 05:08:40;;;;;;;4.73;3.50;;;12.30;99.90;;;;;;4976106;28;20490;-79
2023/09/15 05:11:07;;;;;;;5.20;3.77;;;12.30;99.90;;;;;;4976839;28;20465;-78
2023/09/15 05:13:35;;;;;;;5.83;4.47;;;12.30;99.90;;;;;;4977965;28;20458;-77
2023/09/15 05:16:03;;;;;;;5.23;3.47;;;12.30;99.90;;;;;;4976208;28;20942;-78
2023/09/15 05:18:30;;;;;;;10.80;4.40;;;12.30;99.90;;;;;;4973836;28;20491;-78
2023/09/15 05:20:57;;;;;;;6.83;4.53;;;12.30;99.90;;;;;;4970276;28;20464;-78
2023/09/15 05:23:24;;;;;;;9.50;5.30;;;12.30;99.90;;;;;;4970157;28;20935;-78
2023/09/15 05:25:53;;;;;;;8.93;5.37;;;12.30;99.90;;;;;;4967669;28;20482;-78
2023/09/15 05:28:20;;;;;;;6.67;4.63;;;12.30;99.90;;;;;;4974930;28;20475;-77
2023/09/15 05:30:48;;;;;;;6.40;3.90;;;12.30;99.90;;;;;;4975235;28;20460;-77
2023/09/15 05:33:16;;;;;;;5.40;4.37;;;12.30;99.90;;;;;;4975607;28;20456;-78
2023/09/15 05:35:43;;;;;;;6.87;5.77;;;12.40;99.90;;;;;;4976672;28;20972;-77
2023/09/15 05:38:09;;;;;;;6.10;3.57;;;12.30;99.90;;;;;;4976027;28;20483;-77
2023/09/15 05:40:36;;;;;;;4.77;3.53;;;12.40;99.90;;;;;;4973932;28;20564;-76
2023/09/15 05:43:03;;;;;;;6.87;4.33;;;12.40;99.90;;;;;;4974374;28;20540;-78
2023/09/15 05:45:30;;;;;;;4.67;3.87;;;12.40;99.90;;;;;;4972349;28;20527;-77
2023/09/15 05:47:58;;;;;;;5.37;3.83;;;12.40;99.90;;;;;;4974397;28;20570;-78
2023/09/15 05:50:25;;;;;;;6.87;3.70;;;12.50;99.90;;;;;;4963745;28;20834;-77
2023/09/15 05:52:52;;;;;;;6.20;4.37;;;12.50;99.90;;;;;;4975686;28;20882;-78
2023/09/15 05:55:19;;;;;;;4.87;3.60;;;12.50;99.90;;;;;;4976334;28;20466;-77
2023/09/15 05:57:46;;;;;;;6.03;4.30;;;12.60;99.90;;;;;;4975901;28;20488;-77
2023/09/15 06:00:13;;;;;;;5.37;3.63;;;12.60;99.90;;;;;;4976112;28;20467;-78
2023/09/15 06:02:42;;;;;;;5.97;3.53;;;12.60;99.90;;;;;;4976812;28;20460;-77
2023/09/15 06:05:10;;;;;;;5.17;3.93;;;12.70;99.90;;;;;;4975858;28;21032;-78
2023/09/15 06:07:37;;;;;;;6.33;3.80;;;12.80;99.90;;;;;;4975456;28;21201;-78
2023/09/15 06:10:04;;;;;;;6.00;3.33;;;12.80;99.90;;;;;;4958893;28;20533;-77
2023/09/15 06:12:31;;;;;;;5.23;3.30;;;12.90;99.90;;;;;;4975880;28;20458;-78
2023/09/15 06:14:58;;;;;;;6.90;4.43;;;12.90;99.90;;;;;;4976055;28;20464;-78
2023/09/15 06:17:27;;;;;;;5.63;3.33;;;12.90;99.90;;;;;;4975365;28;20466;-79
2023/09/15 06:19:54;;;;;;;9.20;4.10;;;12.90;99.90;;;;;;4976486;28;20484;-78
2023/09/15 06:22:22;;;;;;;10.73;4.10;;;13.00;99.90;;;;;;4977479;28;20831;-79
2023/09/15 06:24:49;;;;;;;6.10;3.83;;;13.00;99.90;;;;;;4977094;28;20502;-79
2023/09/15 06:27:16;;;;;;;5.77;3.60;;;13.10;99.90;;;;;;4976673;28;20457;-78
2023/09/15 06:29:43;;;;;;;5.20;3.47;;;13.20;99.90;;;;;;4980276;28;20462;-77
2023/09/15 06:32:10;;;;;;;5.80;3.17;;;13.20;99.90;;;;;;4979647;28;20462;-78
2023/09/15 06:34:37;;;;;;;5.77;3.07;;;13.30;99.90;;;;;;4978052;28;20854;-78
2023/09/15 06:37:04;;;;;;;5.00;3.60;;;13.30;99.90;;;;;;4980897;28;20463;-77
2023/09/15 06:39:33;;;;;;;5.60;3.93;;;13.40;99.90;;;;;;4980620;28;20484;-78
2023/09/15 06:42:00;;;;;;;5.77;3.13;;;13.50;99.90;;;;;;4981457;28;20462;-78
2023/09/15 06:44:27;;;;;;;9.10;3.33;;;13.50;99.90;;;;;;4981552;28;20497;-79
2023/09/15 06:46:53;;;;;;;5.73;3.30;;;13.50;99.90;;;;;;4980542;28;20463;-78
2023/09/15 06:49:21;;;;;;;9.40;4.03;;;13.60;99.90;;;;;;4980328;28;20558;-78
2023/09/15 06:51:48;;;;;;;4.97;3.07;;;13.60;99.90;;;;;;4980261;28;20462;-78
2023/09/15 06:54:15;;;;;;;4.40;2.80;;;13.70;99.90;;;;;;4980164;28;20459;-79
2023/09/15 06:56:43;;;;;;;5.37;2.80;;;13.80;99.90;;;;;;4979879;28;20482;-78
2023/09/15 06:59:10;;;;;;;4.03;2.80;;;13.80;99.90;;;;;;4979052;28;21067;-79
2023/09/15 07:01:37;;;;;;;5.13;2.63;;;13.90;99.90;;;;;;4979236;28;20488;-79
2023/09/15 07:04:04;;;;;;;6.60;3.50;;;14.00;99.90;;;;;;4979187;28;20718;-79
2023/09/15 07:06:31;;;;;;;4.70;2.93;;;14.00;99.90;;;;;;4979267;28;20527;-79
2023/09/15 07:08:59;;;;;;;7.17;3.30;;;14.10;99.90;;;;;;4978871;28;20518;-78
2023/09/15 07:11:26;;;;;;;7.20;3.10;;;14.10;99.90;;;;;;4979346;28;20501;-80
2023/09/15 07:13:54;;;;;;;7.20;3.63;;;14.20;99.90;;;;;;4979592;28;20535;-80
2023/09/15 07:16:21;;;;;;;4.60;3.10;;;14.30;99.90;;;;;;4977821;28;20460;-78
2023/09/15 07:18:47;;;;;;;7.00;2.93;;;14.30;99.90;;;;;;4960014;28;20495;-78
2023/09/15 07:21:15;;;;;;;7.67;3.27;;;14.40;99.90;;;;;;4977771;28;20928;-77
2023/09/15 07:23:41;;;;;;;11.20;3.53;;;14.50;99.90;;;;;;4977188;28;20495;-77
2023/09/15 07:26:08;;;;;;;4.67;3.17;;;14.50;99.90;;;;;;4977302;28;20480;-77
2023/09/15 07:28:35;;;;;;;6.80;2.80;;;14.60;99.90;;;;;;4976805;28;20633;-78
2023/09/15 07:31:07;;;;;;;8.63;3.60;;;14.60;99.90;;;;;;4976955;28;20513;-78
2023/09/15 07:33:34;;;;;;;6.27;3.03;;;14.70;99.90;;;;;;4976764;28;20978;-77
2023/09/15 07:36:01;;;;;;;4.43;2.60;;;14.80;99.90;;;;;;4976590;28;20487;-77
2023/09/15 07:38:29;;;;;;;6.43;2.73;;;14.90;99.90;;;;;;4976130;28;20482;-77
2023/09/15 07:40:56;;;;;;;7.73;2.87;;;15.00;99.90;;;;;;4976417;28;20455;-77
2023/09/15 07:43:23;;;;;;;6.73;3.17;;;15.10;99.90;;;;;;4976326;28;20448;-77
2023/09/15 07:45:50;;;;;;;3.83;2.80;;;15.20;99.90;;;;;;4975788;28;20451;-77
2023/09/15 07:48:18;;;;;;;4.23;2.27;;;15.30;99.90;;;;;;4975416;28;20478;-77
2023/09/15 07:50:45;;;;;;;6.30;2.87;;;15.30;99.90;;;;;;4976186;28;20457;-78
2023/09/15 07:53:12;;;;;;;6.27;2.33;;;15.40;99.90;;;;;;4976025;28;20461;-76
2023/09/15 07:55:38;;;;;;;7.17;3.07;;;15.50;99.90;;;;;;4966358;28;20831;-77
2023/09/15 07:58:05;;;;;;;4.10;2.53;;;15.60;99.90;;;;;;4976114;28;20470;-77
2023/09/15 08:00:32;;;;;;;7.30;3.40;;;15.70;99.90;;;;;;4975076;28;20455;-76
2023/09/15 08:02:59;;;;;;;5.77;2.47;;;15.70;99.90;;;;;;4976517;28;20451;-76
2023/09/15 08:05:27;;;;;;;6.00;2.77;;;15.80;99.90;;;;;;4976876;28;20574;-77
2023/09/15 08:07:54;;;;;;;7.33;2.80;;;15.90;99.90;;;;;;4976415;28;20546;-77
2023/09/15 08:10:22;;;;;;;7.50;2.50;;;16.00;99.90;;;;;;4977007;28;20464;-77
2023/09/15 08:12:52;;;;;;;5.40;3.20;;;16.10;99.90;;;;;;4976317;28;20463;-77
2023/09/15 08:15:20;;;;;;;6.40;2.60;;;16.10;99.90;;;;;;4972289;28;20491;-77
2023/09/15 08:17:47;;;;;;;6.40;2.80;;;16.20;99.90;;;;;;4976371;28;20558;-78
2023/09/15 08:20:14;;;;;;;4.63;3.13;;;16.30;99.90;;;;;;4977210;28;20453;-77
2023/09/15 08:22:42;;;;;;;4.00;2.40;;;16.40;99.90;;;;;;4984807;28;20471;-78
2023/09/15 08:25:11;;;;;;;5.83;2.80;;;16.50;99.90;;;;;;4978311;28;20853;-78
2023/09/15 08:27:38;;;;;;;8.33;2.97;;;16.60;99.90;;;;;;4975265;28;20483;-79
2023/09/15 08:30:08;;;;;;;7.60;3.50;;;16.80;99.90;;;;;;4970518;28;20452;-79
2023/09/15 08:32:35;;;;;;;7.47;3.07;;;16.90;99.90;;;;;;4974650;28;20463;-77
2023/09/15 08:35:01;;;;;;;5.80;3.13;;;17.00;99.90;;;;;;4979955;28;20518;-78
2023/09/15 08:37:28;;;;;;;5.73;2.90;;;17.10;99.90;;;;;;4980199;28;20540;-78
2023/09/15 08:39:56;;;;;;;5.77;2.60;;;17.20;99.90;;;;;;4975967;28;20546;-78
2023/09/15 08:42:26;;;;;;;4.10;2.70;;;17.30;99.90;;;;;;4976739;28;20964;-78
2023/09/15 08:44:54;;;;;;;8.80;2.47;;;17.40;99.90;;;;;;4975277;28;20499;-78
2023/09/15 08:47:21;;;;;;;5.60;2.97;;;17.50;85.50;;;;;;4969164;28;20490;-77
2023/09/15 08:49:49;;;;;;;4.60;2.90;;;17.50;31.80;;;;;;4983371;28;20460;-78
2023/09/15 08:52:17;;;;;;;4.37;2.50;;;17.60;24.50;;;;;;4995881;28;20461;-80
2023/09/15 08:54:45;;;;;;;5.17;2.60;;;17.70;32.60;;;;;;4977416;28;20539;-78
2023/09/15 08:57:14;;;;;;;4.87;2.53;;;17.80;75.70;;;;;;4976803;28;20536;-78
2023/09/15 08:59:41;;;;;;;4.07;2.23;;;17.90;69.40;;;;;;4977929;28;20932;-77
2023/09/15 09:02:11;;;;;;;5.00;2.80;;;18.00;28.90;;;;;;4977186;28;20461;-76
2023/09/15 09:04:38;;;;;;;7.33;2.37;;;18.00;21.10;;;;;;4977921;28;20546;-78
2023/09/15 09:07:06;;;;;;;4.33;2.23;;;18.10;18.10;;;;;;4977180;28;20984;-77
2023/09/15 09:09:34;;;;;;;5.10;2.90;;;18.20;1.00;;;;;;4977357;28;20507;-78
2023/09/15 09:12:01;;;;;;;4.80;2.33;;;18.30;1.00;;;;;;4972051;28;20470;-77
2023/09/15 09:14:29;;;;;;;4.37;2.40;;;18.30;1.00;;;;;;4970171;28;20442;-78
2023/09/15 09:16:57;;;;;;;3.13;2.13;;;18.40;1.00;;;;;;4969888;28;20812;-77
2023/09/15 09:19:35;;;;;;;4.67;2.20;;;18.40;1.00;;;;;;4976234;28;20497;-77
2023/09/15 09:22:02;;;;;;;4.27;2.47;;;18.60;1.00;;;;;;4977669;28;20493;-78
2023/09/15 09:24:29;;;;;;;3.70;2.33;;;18.80;1.00;;;;;;4973939;28;20499;-77
2023/09/15 09:26:56;;;;;;;4.63;2.33;;;19.00;1.00;;;;;;4967059;28;20484;-78
2023/09/15 09:29:26;;;;;;;3.53;1.83;;;19.10;99.90;;;;;;4969826;28;20476;-78
2023/09/15 09:31:55;;;;;;;4.67;2.70;;;19.30;99.90;;;;;;4976300;28;20900;-77
2023/09/15 09:34:22;;;;;;;4.80;2.50;;;19.60;1.00;;;;;;4974881;28;20461;-77
2023/09/15 09:36:49;;;;;;;3.00;1.90;;;19.80;99.90;;;;;;4976768;28;20452;-78
2023/09/15 09:39:16;;;;;;;4.23;3.20;;;20.00;99.90;;;;;;4971012;28;20460;-78
2023/09/15 09:41:45;;;;;;;4.37;2.50;;;20.30;1.00;;;;;;4977012;28;20531;-78
2023/09/15 09:44:12;;;;;;;4.00;2.17;;;20.60;99.90;;;;;;4979695;28;20459;-77
2023/09/15 09:46:41;;;;;;;3.33;2.03;;;20.90;1.00;;;;;;4979705;28;20457;-77
2023/09/15 09:49:09;;;;;;;4.13;2.50;;;21.10;1.00;;;;;;4979198;28;20730;-79
2023/09/15 09:51:36;;;;;;;4.70;2.40;;;21.40;99.90;;;;;;4982575;28;20456;-78
2023/09/15 09:54:04;;;;;;;6.40;3.10;;;21.60;1.00;;;;;;4983183;28;20519;-77
2023/09/15 09:56:32;;;;;;;4.10;2.37;;;21.80;1.00;;;;;;4978965;28;20840;-77
2023/09/15 09:59:09;;;;;;;3.50;2.43;;;22.00;99.90;;;;;;4986024;28;20503;-76
2023/09/15 10:01:36;;;;;;;4.90;2.70;;;22.20;1.00;;;;;;4986223;28;20447;-77
2023/09/15 10:04:05;;;;;;;5.50;2.83;;;22.50;99.90;;;;;;4985735;28;20534;-76
2023/09/15 10:06:35;;;;;;;5.00;2.93;;;22.70;99.90;;;;;;4982924;28;20561;-78
2023/09/15 10:09:05;;;;;;;4.40;2.20;;;22.90;59.20;;;;;;4978107;28;20886;-78
2023/09/15 10:11:33;;;;;;;4.27;2.43;;;23.20;99.90;;;;;;4982379;28;20972;-77
2023/09/15 10:14:02;;;;;;;4.93;2.27;;;23.50;1.00;;;;;;4982153;28;20447;-78
2023/09/15 10:16:30;;;;;;;3.63;2.27;;;23.70;32.70;;;;;;4978233;28;20446;-77
2023/09/15 10:18:57;;;;;;;4.93;2.33;;;23.80;66.20;;;;;;4978477;28;20475;-78
2023/09/15 10:21:25;;;;;;;3.57;2.00;;;24.00;16.90;;;;;;4981082;28;20758;-78
2023/09/15 10:24:02;;;;;;;4.90;2.50;;;24.10;1.00;;;;;;4981001;28;20461;-78
2023/09/15 10:26:30;;;;;;;7.67;3.00;;;24.00;1.00;;;;;;4979975;28;20501;-78
2023/09/15 10:28:57;;;;;;;9.70;2.63;;;24.20;1.00;;;;;;4979336;28;20484;-77
2023/09/15 10:31:24;;;;;;;5.50;3.00;;;24.20;1.00;;;;;;4980167;28;20473;-78
2023/09/15 10:33:51;;;;;;;3.80;2.83;;;24.30;1.00;;;;;;4979992;28;20467;-77
2023/09/15 10:36:20;;;;;;;4.63;2.83;;;24.40;1.00;;;;;;4980382;28;20451;-78
2023/09/15 10:38:47;;;;;;;4.10;2.30;;;24.50;1.00;;;;;;4986987;28;20503;-78
2023/09/15 10:41:26;;;;;;;5.03;2.80;;;24.70;1.00;;;;;;4972153;28;20547;-77
2023/09/15 10:43:53;;;;;;;4.10;2.60;;;24.70;24.80;;;;;;4970108;28;20452;-77
2023/09/15 10:46:20;;;;;;;5.53;2.90;;;25.00;99.90;;;;;;4972054;28;20491;-77
2023/09/15 10:48:51;;;;;;;5.77;2.60;;;25.10;1.00;;;;;;4969631;28;20471;-77
2023/09/15 10:51:19;;;;;;;5.00;2.53;;;25.20;1.00;;;;;;4974129;28;20656;-78
2023/09/15 10:53:47;;;;;;;4.03;2.23;;;25.30;1.00;;;;;;4972053;28;20546;-77
2023/09/15 10:56:15;;;;;;;3.80;2.10;;;25.50;1.00;;;;;;4976270;28;20449;-76
2023/09/15 10:58:46;;;;;;;5.33;2.73;;;25.60;1.00;;;;;;4977782;28;20546;-77
2023/09/15 11:01:14;;;;;;;4.50;2.40;;;25.70;1.00;;;;;;4978607;28;20451;-76
2023/09/15 11:03:42;;;;;;;5.20;2.37;;;25.70;1.00;;;;;;4977940;28;20483;-77
2023/09/15 11:06:12;;;;;;;4.07;2.60;;;25.80;1.00;;;;;;4977379;28;20494;-78
2023/09/15 11:08:39;;;;;;;4.10;2.40;;;25.80;1.00;;;;;;4976562;28;20475;-78
2023/09/15 11:11:09;;;;;;;8.77;2.90;;;26.00;1.00;;;;;;4978896;28;20451;-78
2023/09/15 11:13:36;;;;;;;4.53;2.80;;;26.10;1.00;;;;;;4983725;28;20451;-78
2023/09/15 11:16:05;;;;;;;4.03;2.30;;;26.20;1.00;;;;;;4963662;28;20460;-77
2023/09/15 11:18:33;;;;;;;5.03;2.07;;;26.50;1.00;;;;;;4973817;28;20550;-77
2023/09/15 11:21:01;;;;;;;4.23;2.17;;;26.60;1.00;;;;;;4979482;28;20925;-77
2023/09/15 11:23:28;;;;;;;3.50;1.70;;;26.60;1.00;;;;;;4978212;28;20484;-77
2023/09/15 11:26:01;;;;;;;4.50;2.40;;;26.70;1.00;;;;;;4978551;28;20514;-76
2023/09/15 11:28:29;;;;;;;3.67;2.00;;;26.80;1.00;;;;;;4977968;28;20552;-79
2023/09/15 11:30:56;;;;;;;3.00;1.73;;;26.90;1.00;;;;;;4975733;28;20450;-78
2023/09/15 11:33:25;;;;;;;3.97;1.83;;;27.10;1.00;;;;;;4974421;28;20448;-79
2023/09/15 11:35:52;;;;;;;3.23;2.10;;;27.30;1.00;;;;;;4977372;28;20448;-77
2023/09/15 11:38:19;;;;;;;3.17;1.93;;;27.30;1.00;;;;;;4977404;28;20474;-79
2023/09/15 11:40:47;;;;;;;3.27;1.80;;;27.30;1.00;;;;;;4977922;28;20448;-78
2023/09/15 11:43:14;;;;;;;4.23;2.13;;;27.50;1.00;;;;;;4979250;28;20969;-78
2023/09/15 11:45:43;;;;;;;4.43;1.80;;;27.60;1.00;;;;;;4974572;28;20490;-79
2023/09/15 11:48:12;;;;;;;3.80;1.90;;;27.60;1.00;;;;;;4970094;28;20881;-78
2023/09/15 11:50:41;;;;;;;3.30;2.03;;;27.80;1.00;;;;;;4969759;28;20478;-76
2023/09/15 11:53:08;;;;;;;3.17;1.57;;;27.90;1.00;;;;;;4981934;28;20459;-77
2023/09/15 11:55:35;;;;;;;3.40;2.33;;;28.10;1.00;;;;;;4978910;28;20532;-78
2023/09/15 11:58:03;;;;;;;2.90;1.57;;;28.10;1.00;;;;;;4978997;28;20471;-78
2023/09/15 12:00:31;;;;;;;3.47;1.70;;;28.20;1.00;;;;;;4978199;28;20443;-79
2023/09/15 12:02:59;;;;;;;3.63;2.00;;;28.30;1.00;;;;;;4978429;28;20451;-77
2023/09/15 12:05:27;;;;;;;2.97;2.03;;;28.40;1.00;;;;;;4978566;28;21128;-80
2023/09/15 12:07:56;;;;;;;3.60;1.80;;;28.40;1.00;;;;;;4973867;28;20487;-77
2023/09/15 12:10:25;;;;;;;2.70;1.70;;;28.40;1.00;;;;;;4979032;28;20472;-79
2023/09/15 12:12:57;;;;;;;4.40;2.20;;;28.50;1.00;;;;;;4976312;28;20452;-79
2023/09/15 12:15:25;;;;;;;3.40;2.20;;;28.80;1.00;;;;;;4974310;28;20535;-80
2023/09/15 12:17:52;;;;;;;3.10;2.10;;;29.00;1.00;;;;;;4974047;28;20507;-79
2023/09/15 12:20:23;;;;;;;4.10;1.90;;;29.30;99.90;;;;;;4974943;28;20551;-78
2023/09/15 12:22:50;;;;;;;4.73;2.23;;;29.50;27.60;;;;;;4975352;28;20518;-79
2023/09/15 12:25:19;;;;;;;6.70;2.53;;;29.40;75.50;;;;;;4978017;28;21025;-79
2023/09/15 12:27:46;;;;;;;5.10;2.03;;;29.40;82.50;;;;;;4978532;28;20479;-79
2023/09/15 12:30:15;;;;;;;3.63;2.00;;;29.50;86.20;;;;;;4978808;28;20451;-80
2023/09/15 12:32:46;;;;;;;5.50;2.00;;;29.30;85.00;;;;;;4972117;28;20443;-78
2023/09/15 12:35:14;;;;;;;3.13;1.90;;;29.30;88.90;;;;;;4979908;28;20451;-79
2023/09/15 12:37:42;;;;;;;4.60;2.53;;;29.60;86.60;;;;;;4984688;28;20471;-79
2023/09/15 12:40:10;;;;;;;5.20;2.40;;;29.50;84.90;;;;;;4978957;28;20461;-77
2023/09/15 12:42:39;;;;;;;6.63;2.30;;;29.50;85.90;;;;;;4974152;28;20471;-81
2023/09/15 12:45:08;;;;;;;3.67;1.87;;;29.70;81.40;;;;;;4978886;28;20458;-78
2023/09/15 12:47:35;;;;;;;3.80;1.80;;;29.70;79.40;;;;;;4978469;28;20538;-79
2023/09/15 12:50:05;;;;;;;3.90;2.00;;;29.60;89.60;;;;;;4978632;28;20543;-79
2023/09/15 12:52:32;;;;;;;3.67;2.03;;;29.60;84.90;;;;;;4977771;28;20891;-78